Time;durP1;ratioP1;P1;durP2;ratioP2;P2;SDS_P1;SDS_P2;PMS_P1;PMS_P2;Temp;Humidity;BMP_temperature;BMP_pressure;BME280_temperature;BME280_humidity;BME280_pressure;Samples;Min_cycle;Max_cycle;Signal;HPM_P1;HPM_P2
2021/08/03 00:01:06;;;;;;;4.28;1.42;;;;;;;;;;5003122;28;20050;-82
2021/08/03 00:03:37;;;;;;;4.40;1.40;;;;;;;;;;5005329;28;20053;-82
2021/08/03 00:06:05;;;;;;;5.78;1.55;;;;;;;;;;5005682;28;20046;-82
2021/08/03 00:08:34;;;;;;;5.90;1.48;;;;;;;;;;5003528;28;20050;-80
2021/08/03 00:11:05;;;;;;;2.67;1.58;;;;;;;;;;4999786;28;20138;-80
2021/08/03 00:13:33;;;;;;;2.53;1.55;;;;;;;;;;4999070;28;20580;-81
2021/08/03 00:16:03;;;;;;;3.67;1.70;;;;;;;;;;5013941;28;20054;-81
2021/08/03 00:18:31;;;;;;;5.20;2.20;;;;;;;;;;4998430;28;20046;-80
2021/08/03 00:20:58;;;;;;;2.20;1.23;;;;;;;;;;4979757;28;20051;-81
2021/08/03 00:23:25;;;;;;;4.03;1.50;;;;;;;;;;4979294;28;20051;-81
2021/08/03 00:25:52;;;;;;;4.15;1.65;;;;;;;;;;4977694;28;20043;-81
2021/08/03 00:28:19;;;;;;;3.75;1.50;;;;;;;;;;4979337;28;20055;-80
2021/08/03 00:30:46;;;;;;;3.90;1.75;;;;;;;;;;4978811;28;20058;-81
2021/08/03 00:33:13;;;;;;;4.88;1.63;;;;;;;;;;4979344;28;20059;-80
2021/08/03 00:35:41;;;;;;;5.90;1.80;;;;;;;;;;4962276;28;20515;-81
2021/08/03 00:38:08;;;;;;;4.65;1.88;;;;;;;;;;4979105;28;20047;-80
2021/08/03 00:40:35;;;;;;;3.65;1.65;;;;;;;;;;4985773;28;20058;-81
2021/08/03 00:43:02;;;;;;;3.40;1.50;;;;;;;;;;4998118;28;20047;-81
2021/08/03 00:45:29;;;;;;;5.15;1.70;;;;;;;;;;4997185;28;20050;-81
2021/08/03 00:47:55;;;;;;;3.42;1.48;;;;;;;;;;4996636;28;20046;-81
2021/08/03 00:50:22;;;;;;;3.15;1.30;;;;;;;;;;4996787;28;20050;-81
2021/08/03 00:52:50;;;;;;;3.45;1.73;;;;;;;;;;4998232;28;20042;-81
2021/08/03 00:55:17;;;;;;;4.95;1.50;;;;;;;;;;4998583;28;20056;-80
2021/08/03 00:57:44;;;;;;;3.03;1.63;;;;;;;;;;4997260;28;20065;-81
2021/08/03 01:00:11;;;;;;;4.45;1.60;;;;;;;;;;4997990;28;20053;-81
2021/08/03 01:02:38;;;;;;;5.20;2.22;;;;;;;;;;4997480;28;20495;-80
2021/08/03 01:05:05;;;;;;;5.50;1.63;;;;;;;;;;4997743;28;20724;-81
2021/08/03 01:07:37;;;;;;;3.55;1.80;;;;;;;;;;4997909;28;20494;-80
2021/08/03 01:10:12;;;;;;;3.00;1.30;;;;;;;;;;4998034;28;20046;-80
2021/08/03 01:12:47;;;;;;;3.38;1.58;;;;;;;;;;4998495;28;20056;-80
2021/08/03 01:15:16;;;;;;;5.22;1.55;;;;;;;;;;4998929;28;20061;-80
2021/08/03 01:17:46;;;;;;;2.63;1.60;;;;;;;;;;4988094;28;20046;-81
2021/08/03 01:20:17;;;;;;;4.72;1.70;;;;;;;;;;4979108;28;20050;-81
2021/08/03 01:23:20;;;;;;;3.35;1.70;;;;;;;;;;4978816;28;20071;-81
2021/08/03 01:26:03;;;;;;;2.88;1.42;;;;;;;;;;4979670;28;20512;-80
2021/08/03 01:28:35;;;;;;;1.95;1.40;;;;;;;;;;4979212;28;20047;-80
2021/08/03 01:31:03;;;;;;;2.30;1.35;;;;;;;;;;4979612;28;20046;-81
2021/08/03 01:33:31;;;;;;;4.82;2.10;;;;;;;;;;4979811;28;20047;-81
2021/08/03 01:36:00;;;;;;;2.70;1.60;;;;;;;;;;4982225;28;20050;-81
2021/08/03 01:38:28;;;;;;;2.88;1.55;;;;;;;;;;4999174;28;20042;-81
2021/08/03 01:40:57;;;;;;;3.65;1.52;;;;;;;;;;4997723;28;20054;-81
2021/08/03 01:43:24;;;;;;;2.50;1.30;;;;;;;;;;4998330;28;20133;-82
2021/08/03 01:45:54;;;;;;;5.40;1.80;;;;;;;;;;5000092;28;20047;-81
2021/08/03 01:48:21;;;;;;;2.28;1.60;;;;;;;;;;4999479;28;20046;-81
2021/08/03 01:50:49;;;;;;;5.05;1.77;;;;;;;;;;4998740;28;20053;-81
2021/08/03 01:53:18;;;;;;;4.07;1.48;;;;;;;;;;5001389;28;20133;-82
2021/08/03 01:55:46;;;;;;;3.17;1.60;;;;;;;;;;5001398;28;20403;-82
2021/08/03 01:58:13;;;;;;;2.70;1.80;;;;;;;;;;5003441;28;20050;-81
2021/08/03 02:00:42;;;;;;;2.85;1.85;;;;;;;;;;5002945;28;20053;-82
2021/08/03 02:03:10;;;;;;;3.67;1.73;;;;;;;;;;5003096;28;20484;-82
2021/08/03 02:05:37;;;;;;;3.00;1.50;;;;;;;;;;5001217;28;20501;-81
2021/08/03 02:08:05;;;;;;;3.58;2.00;;;;;;;;;;4980850;28;20055;-81
2021/08/03 02:10:31;;;;;;;2.63;1.50;;;;;;;;;;4981057;28;20046;-80
2021/08/03 02:12:58;;;;;;;3.38;1.35;;;;;;;;;;4980606;28;20046;-80
2021/08/03 02:15:25;;;;;;;2.42;1.58;;;;;;;;;;4990870;28;20069;-81
2021/08/03 02:17:52;;;;;;;3.58;1.60;;;;;;;;;;4982654;28;20487;-82
2021/08/03 02:20:20;;;;;;;6.65;1.80;;;;;;;;;;4998820;28;20046;-82
2021/08/03 02:22:47;;;;;;;3.47;1.60;;;;;;;;;;4999667;28;20046;-82
2021/08/03 02:25:14;;;;;;;2.47;1.73;;;;;;;;;;4999463;28;20052;-81
2021/08/03 02:27:41;;;;;;;2.85;1.70;;;;;;;;;;5000785;28;20061;-80
2021/08/03 02:30:09;;;;;;;2.53;1.50;;;;;;;;;;4999524;28;20058;-82
2021/08/03 02:32:39;;;;;;;3.10;1.67;;;;;;;;;;4995993;28;20046;-80
2021/08/03 02:35:09;;;;;;;2.00;1.40;;;;;;;;;;4987621;28;20051;-81
2021/08/03 02:37:39;;;;;;;2.63;1.58;;;;;;;;;;4997322;28;20057;-82
2021/08/03 02:40:08;;;;;;;5.40;1.60;;;;;;;;;;4982746;28;20078;-81
2021/08/03 02:42:36;;;;;;;2.75;1.33;;;;;;;;;;4982027;28;20058;-80
2021/08/03 02:45:05;;;;;;;1.83;1.20;;;;;;;;;;4998947;28;20502;-81
2021/08/03 02:47:42;;;;;;;3.65;1.60;;;;;;;;;;4999580;28;20149;-80
2021/08/03 02:50:10;;;;;;;2.53;1.50;;;;;;;;;;5000018;28;20050;-81
2021/08/03 02:52:40;;;;;;;2.78;1.52;;;;;;;;;;5000308;28;20050;-81
2021/08/03 02:55:10;;;;;;;2.30;1.50;;;;;;;;;;5000509;28;20054;-81
2021/08/03 02:57:39;;;;;;;4.32;2.20;;;;;;;;;;4999654;28;20050;-81
2021/08/03 03:00:07;;;;;;;2.70;1.65;;;;;;;;;;5001125;28;20053;-81
2021/08/03 03:02:36;;;;;;;2.20;1.30;;;;;;;;;;4985338;28;20065;-81
2021/08/03 03:05:07;;;;;;;2.50;1.30;;;;;;;;;;4984623;28;20074;-81
2021/08/03 03:07:38;;;;;;;2.40;1.50;;;;;;;;;;5003041;28;20523;-82
2021/08/03 03:10:08;;;;;;;2.25;1.48;;;;;;;;;;5004374;28;20384;-81
2021/08/03 03:12:35;;;;;;;2.50;1.38;;;;;;;;;;5004483;28;20058;-81
2021/08/03 03:15:05;;;;;;;2.80;1.67;;;;;;;;;;5002565;28;20115;-81
2021/08/03 03:17:34;;;;;;;3.38;1.17;;;;;;;;;;5003402;28;20046;-81
2021/08/03 03:20:00;;;;;;;1.75;1.23;;;;;;;;;;5003758;28;20065;-81
2021/08/03 03:22:28;;;;;;;2.22;1.20;;;;;;;;;;5005050;28;20395;-80
2021/08/03 03:24:56;;;;;;;1.73;0.98;;;;;;;;;;5005213;28;20053;-81
2021/08/03 03:27:24;;;;;;;1.73;1.00;;;;;;;;;;5004072;28;20042;-82
2021/08/03 03:29:51;;;;;;;1.55;1.02;;;;;;;;;;5003478;28;20057;-82
2021/08/03 03:32:18;;;;;;;2.08;1.25;;;;;;;;;;5002940;28;20054;-81
2021/08/03 03:34:45;;;;;;;1.88;1.40;;;;;;;;;;5002595;28;20051;-82
2021/08/03 03:37:11;;;;;;;1.80;1.15;;;;;;;;;;5005557;28;20588;-81
2021/08/03 03:39:38;;;;;;;2.20;1.20;;;;;;;;;;4997168;28;20050;-81
2021/08/03 03:42:07;;;;;;;2.08;1.35;;;;;;;;;;5005864;28;20045;-81
2021/08/03 03:44:34;;;;;;;3.05;1.73;;;;;;;;;;4996918;28;20049;-80
2021/08/03 03:47:03;;;;;;;2.92;1.00;;;;;;;;;;4991477;28;20053;-81
2021/08/03 03:49:34;;;;;;;2.20;1.27;;;;;;;;;;4996107;28;20535;-81
2021/08/03 03:52:01;;;;;;;2.60;1.30;;;;;;;;;;4989669;28;20054;-80
2021/08/03 03:54:31;;;;;;;2.45;1.50;;;;;;;;;;4997398;28;20486;-81
2021/08/03 03:57:00;;;;;;;2.25;1.30;;;;;;;;;;4987194;28;20052;-80
2021/08/03 03:59:28;;;;;;;2.38;1.70;;;;;;;;;;4996161;28;20050;-81
2021/08/03 04:01:58;;;;;;;2.83;1.40;;;;;;;;;;4997479;28;20047;-81
2021/08/03 04:04:25;;;;;;;6.93;1.85;;;;;;;;;;4995545;28;20046;-82
2021/08/03 04:06:51;;;;;;;5.40;1.55;;;;;;;;;;4999130;28;20046;-81
2021/08/03 04:09:19;;;;;;;7.22;1.80;;;;;;;;;;4996892;28;20096;-80
2021/08/03 04:11:45;;;;;;;3.08;1.95;;;;;;;;;;4996747;28;20043;-81
2021/08/03 04:14:16;;;;;;;4.05;1.42;;;;;;;;;;5000983;28;20038;-81
2021/08/03 04:16:43;;;;;;;2.40;1.50;;;;;;;;;;4995254;28;20534;-82
2021/08/03 04:19:10;;;;;;;2.88;1.40;;;;;;;;;;4999320;28;20053;-81
2021/08/03 04:21:37;;;;;;;2.65;1.48;;;;;;;;;;5005429;28;20054;-82
2021/08/03 04:24:03;;;;;;;3.75;1.45;;;;;;;;;;5006218;28;20069;-82
2021/08/03 04:26:32;;;;;;;2.20;1.35;;;;;;;;;;5001190;28;20050;-81
2021/08/03 04:28:58;;;;;;;4.90;1.90;;;;;;;;;;4995382;28;20038;-81
2021/08/03 04:31:25;;;;;;;6.07;3.33;;;;;;;;;;4998901;28;20102;-82
2021/08/03 04:33:52;;;;;;;6.20;3.65;;;;;;;;;;4996312;28;20051;-81
2021/08/03 04:36:19;;;;;;;4.60;2.30;;;;;;;;;;5000892;28;20061;-81
2021/08/03 04:38:45;;;;;;;8.55;2.28;;;;;;;;;;4993257;28;20519;-81
2021/08/03 04:41:12;;;;;;;4.90;1.75;;;;;;;;;;4998295;28;20058;-82
2021/08/03 04:43:42;;;;;;;2.55;1.40;;;;;;;;;;4995516;28;20495;-80
2021/08/03 04:46:08;;;;;;;3.67;1.52;;;;;;;;;;4986800;28;20097;-80
2021/08/03 04:48:35;;;;;;;2.05;1.30;;;;;;;;;;4987117;28;20058;-81
2021/08/03 04:51:03;;;;;;;3.25;1.30;;;;;;;;;;4978317;28;20042;-82
2021/08/03 04:53:30;;;;;;;3.05;1.52;;;;;;;;;;4999968;28;20386;-82
2021/08/03 04:55:56;;;;;;;2.00;1.23;;;;;;;;;;5000133;28;20487;-81
2021/08/03 04:58:23;;;;;;;3.53;1.38;;;;;;;;;;4999874;28;20051;-82
2021/08/03 05:00:50;;;;;;;2.13;1.35;;;;;;;;;;5000257;28;20046;-81
2021/08/03 05:03:17;;;;;;;5.38;1.60;;;;;;;;;;5002390;28;20046;-81
2021/08/03 05:05:43;;;;;;;2.33;1.40;;;;;;;;;;5000447;28;20403;-81
2021/08/03 05:08:11;;;;;;;2.00;1.30;;;;;;;;;;5000296;28;20042;-82
2021/08/03 05:10:39;;;;;;;3.00;1.50;;;;;;;;;;4999866;28;20049;-82
2021/08/03 05:13:06;;;;;;;4.00;1.65;;;;;;;;;;4999261;28;20058;-81
2021/08/03 05:15:32;;;;;;;2.28;1.17;;;;;;;;;;4999619;28;20054;-82
2021/08/03 05:17:59;;;;;;;1.98;1.30;;;;;;;;;;4981539;28;20057;-81
2021/08/03 05:20:26;;;;;;;3.72;1.45;;;;;;;;;;4997576;28;20043;-81
2021/08/03 05:22:53;;;;;;;2.75;1.30;;;;;;;;;;4997291;28;20738;-81
2021/08/03 05:25:21;;;;;;;3.13;1.60;;;;;;;;;;4999015;28;20050;-82
2021/08/03 05:27:47;;;;;;;2.88;2.13;;;;;;;;;;4999922;28;20201;-82
2021/08/03 05:30:13;;;;;;;5.45;2.85;;;;;;;;;;5000231;28;20061;-82
2021/08/03 05:32:40;;;;;;;7.50;4.85;;;;;;;;;;4999830;28;20046;-81
2021/08/03 05:35:08;;;;;;;4.00;2.97;;;;;;;;;;4982347;28;20709;-82
2021/08/03 05:37:35;;;;;;;4.63;4.05;;;;;;;;;;4998710;28;20438;-82
2021/08/03 05:40:05;;;;;;;3.35;2.30;;;;;;;;;;4998261;28;20042;-81
2021/08/03 05:42:32;;;;;;;2.63;1.85;;;;;;;;;;4998102;28;20046;-81
2021/08/03 05:44:59;;;;;;;4.25;1.80;;;;;;;;;;4997445;28;20057;-82
2021/08/03 05:47:26;;;;;;;3.40;2.00;;;;;;;;;;4997730;28;20046;-82
2021/08/03 05:49:52;;;;;;;4.45;2.13;;;;;;;;;;4997723;28;20052;-82
2021/08/03 05:52:19;;;;;;;5.85;2.05;;;;;;;;;;4998468;28;20042;-82
2021/08/03 05:54:46;;;;;;;4.97;2.08;;;;;;;;;;4999030;28;20046;-81
2021/08/03 05:57:12;;;;;;;4.63;1.90;;;;;;;;;;4997429;28;20431;-81
2021/08/03 05:59:41;;;;;;;4.00;1.98;;;;;;;;;;4998990;28;20046;-82
2021/08/03 06:02:07;;;;;;;4.53;2.10;;;;;;;;;;4998918;28;20073;-82
2021/08/03 06:04:34;;;;;;;5.18;2.20;;;;;;;;;;4997871;28;20046;-82
2021/08/03 06:07:03;;;;;;;5.53;2.55;;;;;;;;;;4997535;28;20447;-82
2021/08/03 06:09:31;;;;;;;10.43;3.10;;;;;;;;;;4999800;28;20046;-83
2021/08/03 06:12:03;;;;;;;3.97;2.00;;;;;;;;;;4999048;28;20648;-83
2021/08/03 06:14:35;;;;;;;3.60;1.88;;;;;;;;;;5000460;28;20050;-83
2021/08/03 06:17:05;;;;;;;3.97;2.30;;;;;;;;;;5000330;28;20411;-82
2021/08/03 06:19:35;;;;;;;3.28;2.08;;;;;;;;;;4998425;28;20047;-84
2021/08/03 06:22:02;;;;;;;4.55;2.40;;;;;;;;;;4981500;28;20054;-83
2021/08/03 06:24:30;;;;;;;4.80;2.17;;;;;;;;;;4981190;28;20046;-83
2021/08/03 06:26:57;;;;;;;4.10;2.40;;;;;;;;;;4983762;28;20071;-84
2021/08/03 06:29:24;;;;;;;3.60;2.10;;;;;;;;;;4984396;28;20047;-84
2021/08/03 06:31:51;;;;;;;3.63;2.17;;;;;;;;;;4984032;28;20047;-84
2021/08/03 06:34:19;;;;;;;4.90;2.17;;;;;;;;;;4983922;28;20054;-84
2021/08/03 06:36:46;;;;;;;3.53;2.28;;;;;;;;;;4986603;28;20064;-83
2021/08/03 06:39:12;;;;;;;3.95;2.13;;;;;;;;;;4987488;28;20059;-83
2021/08/03 06:41:40;;;;;;;4.40;2.40;;;;;;;;;;4988361;28;20042;-84
2021/08/03 06:44:11;;;;;;;4.00;2.53;;;;;;;;;;4989765;28;20047;-84
2021/08/03 06:46:41;;;;;;;3.92;2.20;;;;;;;;;;5002349;28;20503;-83
2021/08/03 06:49:08;;;;;;;5.22;2.25;;;;;;;;;;5001655;28;20054;-83
2021/08/03 06:51:38;;;;;;;8.25;2.58;;;;;;;;;;5000699;28;20042;-83
2021/08/03 06:54:06;;;;;;;4.95;2.60;;;;;;;;;;5000498;28;20074;-83
2021/08/03 06:56:36;;;;;;;7.90;2.65;;;;;;;;;;4999966;28;20046;-84
2021/08/03 06:59:05;;;;;;;7.80;2.80;;;;;;;;;;5000150;28;20046;-82
2021/08/03 07:01:39;;;;;;;5.00;2.65;;;;;;;;;;4999599;28;20042;-82
2021/08/03 07:04:06;;;;;;;4.68;2.40;;;;;;;;;;4999572;28;20061;-81
2021/08/03 07:06:33;;;;;;;3.53;2.10;;;;;;;;;;4999598;28;20046;-81
2021/08/03 07:09:05;;;;;;;3.55;2.50;;;;;;;;;;5000026;28;20495;-81
2021/08/03 07:11:32;;;;;;;5.32;2.17;;;;;;;;;;4999598;28;20478;-83
2021/08/03 07:13:59;;;;;;;3.60;2.22;;;;;;;;;;4999188;28;20080;-81
2021/08/03 07:16:27;;;;;;;4.75;2.60;;;;;;;;;;4998472;28;20051;-82
2021/08/03 07:18:55;;;;;;;4.47;2.33;;;;;;;;;;5004434;28;20051;-82
2021/08/03 07:21:23;;;;;;;4.95;2.65;;;;;;;;;;5001865;28;20105;-82
2021/08/03 07:23:50;;;;;;;5.35;2.50;;;;;;;;;;5003166;28;20058;-82
2021/08/03 07:26:18;;;;;;;4.10;1.98;;;;;;;;;;5002671;28;20388;-86
2021/08/03 07:28:45;;;;;;;4.30;2.00;;;;;;;;;;5002271;28;20054;-83
2021/08/03 07:31:12;;;;;;;5.25;2.20;;;;;;;;;;5001596;28;20054;-84
2021/08/03 07:33:39;;;;;;;5.50;2.58;;;;;;;;;;5001976;28;20054;-83
2021/08/03 07:36:06;;;;;;;3.88;2.13;;;;;;;;;;5001734;28;20050;-83
2021/08/03 07:38:33;;;;;;;4.30;2.13;;;;;;;;;;5000348;28;20077;-83
2021/08/03 07:41:00;;;;;;;10.88;3.22;;;;;;;;;;5000958;28;20053;-83
2021/08/03 07:43:28;;;;;;;2.90;1.90;;;;;;;;;;5001277;28;20058;-84
2021/08/03 07:45:57;;;;;;;3.00;2.10;;;;;;;;;;5014876;28;20507;-83
2021/08/03 07:48:23;;;;;;;5.72;2.13;;;;;;;;;;5000758;28;20130;-84
2021/08/03 07:50:51;;;;;;;4.07;1.75;;;;;;;;;;5000870;28;20042;-83
2021/08/03 07:53:18;;;;;;;2.70;1.80;;;;;;;;;;4983993;28;20046;-83
2021/08/03 07:55:44;;;;;;;4.03;1.60;;;;;;;;;;5001666;28;20455;-83
2021/08/03 07:58:11;;;;;;;8.73;2.35;;;;;;;;;;5000279;28;20065;-84
2021/08/03 08:00:39;;;;;;;3.70;2.05;;;;;;;;;;5000541;28;20046;-84
2021/08/03 08:03:06;;;;;;;4.88;1.95;;;;;;;;;;5000457;28;20054;-85
2021/08/03 08:05:32;;;;;;;4.47;1.98;;;;;;;;;;5000521;28;20054;-84
2021/08/03 08:07:59;;;;;;;4.85;2.15;;;;;;;;;;5000570;28;20057;-84
2021/08/03 08:10:25;;;;;;;3.40;1.83;;;;;;;;;;5001337;28;20126;-83
2021/08/03 08:12:52;;;;;;;3.10;1.80;;;;;;;;;;5002565;28;20047;-83
2021/08/03 08:15:19;;;;;;;2.50;1.55;;;;;;;;;;5002756;28;20423;-84
2021/08/03 08:17:47;;;;;;;2.88;1.70;;;;;;;;;;5001776;28;20054;-83
2021/08/03 08:20:14;;;;;;;3.40;1.90;;;;;;;;;;5000917;28;20062;-84
2021/08/03 08:22:41;;;;;;;4.65;1.63;;;;;;;;;;5003679;28;20046;-84
2021/08/03 08:25:10;;;;;;;2.65;1.70;;;;;;;;;;5001768;28;20391;-83
2021/08/03 08:27:37;;;;;;;4.60;1.63;;;;;;;;;;5001621;28;20081;-84
2021/08/03 08:30:04;;;;;;;2.70;1.65;;;;;;;;;;5002890;28;20050;-83
2021/08/03 08:32:31;;;;;;;2.75;1.77;;;;;;;;;;5004471;28;20042;-85
2021/08/03 08:34:58;;;;;;;3.72;1.92;;;;;;;;;;5004410;28;20056;-84
2021/08/03 08:37:25;;;;;;;2.47;1.55;;;;;;;;;;5003946;28;20057;-85
2021/08/03 08:39:52;;;;;;;3.92;1.50;;;;;;;;;;5005816;28;20053;-84
2021/08/03 08:42:19;;;;;;;4.22;1.98;;;;;;;;;;5004348;28;20141;-84
2021/08/03 08:44:48;;;;;;;2.10;1.45;;;;;;;;;;5004328;28;20604;-85
2021/08/03 08:47:15;;;;;;;4.40;1.88;;;;;;;;;;5005148;28;20054;-85
2021/08/03 08:49:42;;;;;;;3.13;1.52;;;;;;;;;;5006093;28;20414;-84
2021/08/03 08:52:10;;;;;;;2.67;1.48;;;;;;;;;;5004604;28;20046;-84
2021/08/03 08:54:37;;;;;;;2.08;1.48;;;;;;;;;;5006439;28;20047;-85
2021/08/03 08:57:03;;;;;;;2.40;1.40;;;;;;;;;;5015312;28;20050;-84
2021/08/03 08:59:31;;;;;;;3.10;1.60;;;;;;;;;;4999054;28;20051;-84
2021/08/03 09:01:58;;;;;;;3.65;1.38;;;;;;;;;;5000614;28;20058;-84
2021/08/03 09:04:25;;;;;;;3.33;1.50;;;;;;;;;;5000480;28;20050;-84
2021/08/03 09:07:01;;;;;;;3.28;1.70;;;;;;;;;;5000645;28;20448;-83
2021/08/03 09:09:29;;;;;;;3.08;1.48;;;;;;;;;;5001472;28;20057;-83
2021/08/03 09:11:55;;;;;;;3.70;2.08;;;;;;;;;;5002987;28;20046;-85
2021/08/03 09:14:33;;;;;;;3.15;1.80;;;;;;;;;;5003267;28;20043;-84
2021/08/03 09:17:00;;;;;;;2.40;1.60;;;;;;;;;;5004111;28;20046;-84
2021/08/03 09:19:32;;;;;;;3.70;1.52;;;;;;;;;;5003102;28;20051;-84
2021/08/03 09:22:13;;;;;;;3.20;1.80;;;;;;;;;;4998981;28;20525;-83
2021/08/03 09:24:42;;;;;;;3.30;1.90;;;;;;;;;;4998858;28;20054;-84
2021/08/03 09:27:09;;;;;;;2.30;1.50;;;;;;;;;;4999484;28;20101;-83
2021/08/03 09:29:46;;;;;;;2.63;1.80;;;;;;;;;;4998234;28;20046;-85
2021/08/03 09:32:14;;;;;;;6.82;1.80;;;;;;;;;;5001123;28;20062;-83
2021/08/03 09:34:40;;;;;;;3.50;1.45;;;;;;;;;;5000923;28;20120;-84
2021/08/03 09:37:07;;;;;;;3.00;1.60;;;;;;;;;;4999885;28;20046;-83
2021/08/03 09:39:43;;;;;;;3.60;1.70;;;;;;;;;;5000662;28;20072;-83
2021/08/03 09:42:15;;;;;;;4.15;1.50;;;;;;;;;;4999284;28;20540;-84
2021/08/03 09:44:47;;;;;;;4.38;1.70;;;;;;;;;;4996221;28;20491;-84
2021/08/03 09:47:14;;;;;;;3.42;1.70;;;;;;;;;;4998101;28;20054;-84
2021/08/03 09:49:42;;;;;;;5.18;2.10;;;;;;;;;;4999394;28;20209;-84
2021/08/03 09:52:10;;;;;;;2.95;1.50;;;;;;;;;;4998831;28;20407;-83
2021/08/03 09:54:37;;;;;;;2.85;1.77;;;;;;;;;;4998963;28;20069;-84
2021/08/03 09:57:19;;;;;;;3.70;1.50;;;;;;;;;;4998892;28;20226;-84
2021/08/03 09:59:45;;;;;;;4.80;1.88;;;;;;;;;;4981004;28;20047;-84
2021/08/03 10:02:14;;;;;;;4.20;1.67;;;;;;;;;;4980717;28;20670;-83
2021/08/03 10:04:42;;;;;;;5.22;2.03;;;;;;;;;;4993199;28;20046;-84
2021/08/03 10:07:08;;;;;;;3.35;1.48;;;;;;;;;;4996448;28;20522;-83
2021/08/03 10:09:35;;;;;;;3.00;1.45;;;;;;;;;;4991859;28;20071;-85
2021/08/03 10:12:02;;;;;;;4.47;1.95;;;;;;;;;;4987129;28;20101;-83
2021/08/03 10:14:30;;;;;;;5.38;2.15;;;;;;;;;;4980521;28;20054;-84
2021/08/03 10:16:57;;;;;;;3.83;1.80;;;;;;;;;;4992342;28;20050;-84
2021/08/03 10:19:25;;;;;;;4.13;2.15;;;;;;;;;;4977761;28;20047;-84
2021/08/03 10:22:05;;;;;;;3.65;1.70;;;;;;;;;;4979502;28;20051;-84
2021/08/03 10:27:24;;;;;;;3.55;1.92;;;;;;;;;;4986825;28;20042;-84
2021/08/03 10:29:57;;;;;;;4.07;1.60;;;;;;;;;;4990126;28;20046;-86
2021/08/03 10:32:37;;;;;;;5.32;2.30;;;;;;;;;;4981246;28;20069;-84
2021/08/03 10:35:04;;;;;;;6.88;2.17;;;;;;;;;;4980406;28;20054;-86
2021/08/03 10:38:08;;;;;;;3.92;2.08;;;;;;;;;;4979914;28;20499;-83
2021/08/03 10:41:17;;;;;;;4.07;2.00;;;;;;;;;;4986056;28;20043;-85
2021/08/03 10:43:52;;;;;;;3.00;1.80;;;;;;;;;;4980809;28;20051;-84
2021/08/03 10:46:39;;;;;;;5.07;2.30;;;;;;;;;;4997824;28;20074;-86
2021/08/03 10:49:07;;;;;;;4.55;1.58;;;;;;;;;;5001128;28;20046;-85
2021/08/03 10:51:41;;;;;;;5.07;1.88;;;;;;;;;;5001251;28;20054;-86
2021/08/03 10:54:11;;;;;;;4.15;1.92;;;;;;;;;;5000880;28;20045;-84
2021/08/03 10:57:17;;;;;;;3.33;1.75;;;;;;;;;;5001027;28;20077;-85
2021/08/03 10:59:45;;;;;;;2.70;1.80;;;;;;;;;;5002303;28;20046;-86
2021/08/03 11:02:45;;;;;;;4.00;1.92;;;;;;;;;;5004436;28;20101;-85
2021/08/03 11:05:30;;;;;;;4.70;1.85;;;;;;;;;;5003924;28;20060;-85
2021/08/03 11:07:56;;;;;;;3.65;1.92;;;;;;;;;;5003710;28;20050;-83
2021/08/03 11:10:33;;;;;;;3.00;1.80;;;;;;;;;;5000976;28;20502;-83
2021/08/03 11:13:03;;;;;;;2.53;1.63;;;;;;;;;;5000757;28;20054;-84
2021/08/03 11:15:40;;;;;;;2.47;1.80;;;;;;;;;;5001435;28;20046;-81
2021/08/03 11:18:12;;;;;;;3.63;2.10;;;;;;;;;;5002242;28;20058;-82
2021/08/03 11:21:01;;;;;;;2.35;1.60;;;;;;;;;;5002345;28;20042;-84
2021/08/03 11:23:55;;;;;;;2.60;1.55;;;;;;;;;;5000338;28;20108;-82
2021/08/03 11:26:23;;;;;;;4.28;2.00;;;;;;;;;;4985364;28;20063;-83
2021/08/03 11:28:57;;;;;;;2.97;1.83;;;;;;;;;;4986715;28;20050;-82
2021/08/03 11:31:26;;;;;;;2.60;1.70;;;;;;;;;;4997531;28;20499;-83
2021/08/03 11:34:00;;;;;;;3.53;1.67;;;;;;;;;;5005923;28;20115;-83
2021/08/03 11:36:27;;;;;;;4.97;2.08;;;;;;;;;;5008475;28;20046;-83
2021/08/03 11:38:55;;;;;;;3.53;2.08;;;;;;;;;;5007215;28;20054;-82
2021/08/03 11:41:23;;;;;;;2.67;1.65;;;;;;;;;;5006672;28;20141;-83
2021/08/03 11:43:52;;;;;;;4.60;1.73;;;;;;;;;;4985774;28;20055;-83
2021/08/03 11:46:28;;;;;;;5.45;1.70;;;;;;;;;;4988037;28;20081;-82
2021/08/03 11:49:06;;;;;;;5.35;1.80;;;;;;;;;;5006910;28;20442;-83
2021/08/03 11:51:36;;;;;;;3.92;1.70;;;;;;;;;;5001968;28;20042;-84
2021/08/03 11:54:21;;;;;;;6.20;2.25;;;;;;;;;;4999713;28;20092;-83
2021/08/03 11:56:48;;;;;;;2.92;1.58;;;;;;;;;;4996793;28;20057;-83
2021/08/03 11:59:15;;;;;;;3.33;1.58;;;;;;;;;;4998482;28;20092;-84
2021/08/03 12:01:54;;;;;;;5.85;1.80;;;;;;;;;;4980373;28;20489;-84
2021/08/03 12:04:23;;;;;;;3.88;1.48;;;;;;;;;;4998552;28;20057;-83
2021/08/03 12:06:51;;;;;;;8.35;2.28;;;;;;;;;;4999532;28;20056;-84
2021/08/03 12:09:20;;;;;;;2.88;1.48;;;;;;;;;;4992135;28;20137;-83
2021/08/03 12:11:47;;;;;;;4.53;1.98;;;;;;;;;;4992068;28;20043;-83
2021/08/03 12:14:16;;;;;;;3.67;1.70;;;;;;;;;;4988966;28;20161;-83
2021/08/03 12:16:43;;;;;;;5.28;1.85;;;;;;;;;;4991419;28;20233;-83
2021/08/03 12:19:31;;;;;;;6.03;2.30;;;;;;;;;;4992508;28;20054;-84
2021/08/03 12:22:00;;;;;;;7.32;1.88;;;;;;;;;;5000844;28;20066;-82
2021/08/03 12:24:30;;;;;;;4.60;1.63;;;;;;;;;;4999640;28;20499;-83
2021/08/03 12:27:11;;;;;;;2.28;1.15;;;;;;;;;;4990713;28;20046;-82
2021/08/03 12:29:37;;;;;;;2.65;1.60;;;;;;;;;;4996726;28;20068;-84
2021/08/03 12:32:04;;;;;;;6.55;1.85;;;;;;;;;;4994259;28;20042;-83
2021/08/03 12:34:48;;;;;;;3.83;1.42;;;;;;;;;;5006659;28;20085;-85
2021/08/03 12:37:17;;;;;;;5.72;1.48;;;;;;;;;;5001261;28;20039;-83
2021/08/03 12:39:44;;;;;;;4.60;1.40;;;;;;;;;;4999974;28;20049;-83
2021/08/03 12:42:20;;;;;;;6.20;1.60;;;;;;;;;;5000518;28;20042;-85
2021/08/03 12:44:48;;;;;;;4.75;1.60;;;;;;;;;;5000068;28;20053;-84
2021/08/03 12:47:17;;;;;;;5.13;1.70;;;;;;;;;;5001810;28;20056;-83
2021/08/03 12:49:47;;;;;;;3.33;1.67;;;;;;;;;;5001083;28;20046;-84
2021/08/03 12:52:16;;;;;;;3.00;1.42;;;;;;;;;;4995248;28;20809;-83
2021/08/03 12:54:44;;;;;;;2.95;1.50;;;;;;;;;;4995513;28;20058;-82
2021/08/03 12:57:12;;;;;;;2.13;1.15;;;;;;;;;;4987552;28;20061;-81
2021/08/03 12:59:43;;;;;;;1.60;0.90;;;;;;;;;;4996635;28;20081;-81
2021/08/03 13:02:12;;;;;;;2.17;1.02;;;;;;;;;;4995448;28;20045;-82
2021/08/03 13:04:42;;;;;;;1.30;0.60;;;;;;;;;;4998595;28;20043;-82
2021/08/03 13:07:10;;;;;;;3.10;0.85;;;;;;;;;;4996094;28;20069;-83
2021/08/03 13:09:38;;;;;;;2.83;0.95;;;;;;;;;;4983367;28;20058;-81
2021/08/03 13:12:05;;;;;;;1.52;0.50;;;;;;;;;;4974353;28;20047;-81
2021/08/03 13:14:32;;;;;;;2.95;0.70;;;;;;;;;;4976739;28;20050;-81
2021/08/03 13:16:59;;;;;;;2.67;0.70;;;;;;;;;;4975220;28;20062;-81
2021/08/03 13:19:27;;;;;;;1.17;0.65;;;;;;;;;;4977324;28;20042;-82
2021/08/03 13:21:54;;;;;;;1.67;0.70;;;;;;;;;;4976021;28;20057;-83
2021/08/03 13:24:22;;;;;;;0.85;0.40;;;;;;;;;;4976508;28;20066;-82
2021/08/03 13:26:48;;;;;;;2.22;0.80;;;;;;;;;;4976612;28;20058;-81
2021/08/03 13:29:15;;;;;;;2.10;0.77;;;;;;;;;;4977261;28;20055;-83
2021/08/03 13:31:43;;;;;;;1.08;0.60;;;;;;;;;;4978969;28;20097;-82
2021/08/03 13:34:10;;;;;;;1.38;0.80;;;;;;;;;;4978093;28;20050;-82
2021/08/03 13:36:36;;;;;;;2.25;0.68;;;;;;;;;;4980530;28;20047;-82
2021/08/03 13:39:04;;;;;;;1.65;0.55;;;;;;;;;;4982290;28;20069;-82
2021/08/03 13:41:33;;;;;;;3.10;0.68;;;;;;;;;;5002050;28;20121;-81
2021/08/03 13:44:00;;;;;;;1.15;0.73;;;;;;;;;;5001068;28;20046;-83
2021/08/03 13:46:27;;;;;;;2.22;0.77;;;;;;;;;;4998439;28;20061;-82
2021/08/03 13:48:53;;;;;;;1.52;0.90;;;;;;;;;;4997927;28;20153;-82
2021/08/03 13:51:20;;;;;;;1.83;0.77;;;;;;;;;;4989267;28;20057;-82
2021/08/03 13:53:47;;;;;;;2.58;0.82;;;;;;;;;;4987926;28;20138;-83
2021/08/03 13:56:15;;;;;;;2.63;0.88;;;;;;;;;;4981815;28;20174;-84
2021/08/03 13:58:43;;;;;;;2.50;0.80;;;;;;;;;;4981137;28;20055;-84
2021/08/03 14:01:10;;;;;;;3.15;1.10;;;;;;;;;;4982680;28;20044;-81
2021/08/03 14:03:36;;;;;;;4.57;0.90;;;;;;;;;;4999373;28;20400;-80
2021/08/03 14:06:03;;;;;;;4.32;1.00;;;;;;;;;;5015241;28;20050;-81
2021/08/03 14:08:30;;;;;;;2.25;0.98;;;;;;;;;;4997854;28;20042;-81
2021/08/03 14:10:57;;;;;;;4.20;1.20;;;;;;;;;;4994075;28;20043;-83
2021/08/03 14:13:24;;;;;;;3.22;1.05;;;;;;;;;;4997936;28;20062;-82
2021/08/03 14:15:53;;;;;;;3.42;1.10;;;;;;;;;;4997609;28;20071;-84
2021/08/03 14:18:20;;;;;;;2.25;0.95;;;;;;;;;;4998314;28;20411;-81
2021/08/03 14:20:47;;;;;;;2.63;1.00;;;;;;;;;;4997758;28;20042;-82
2021/08/03 14:23:14;;;;;;;3.15;0.88;;;;;;;;;;4996947;28;20058;-84
2021/08/03 14:25:40;;;;;;;1.58;1.10;;;;;;;;;;4997978;28;20077;-83
2021/08/03 14:28:07;;;;;;;1.60;0.75;;;;;;;;;;4998114;28;20086;-84
2021/08/03 14:30:34;;;;;;;3.53;0.90;;;;;;;;;;4997210;28;20054;-85
2021/08/03 14:33:02;;;;;;;1.58;0.88;;;;;;;;;;4997605;28;20046;-84
2021/08/03 14:35:29;;;;;;;2.85;0.90;;;;;;;;;;4996640;28;20061;-83
2021/08/03 14:37:56;;;;;;;5.70;1.85;;;;;;;;;;4997466;28;20133;-84
2021/08/03 14:40:22;;;;;;;2.47;1.08;;;;;;;;;;4997438;28;20121;-84
2021/08/03 14:42:49;;;;;;;2.50;1.02;;;;;;;;;;4997387;28;20050;-83
2021/08/03 14:45:15;;;;;;;5.35;1.20;;;;;;;;;;4998362;28;20058;-85
2021/08/03 14:47:42;;;;;;;2.45;1.00;;;;;;;;;;4998150;28;20051;-84
2021/08/03 14:50:12;;;;;;;4.00;0.88;;;;;;;;;;4998298;28;20053;-83
2021/08/03 14:52:38;;;;;;;3.33;1.02;;;;;;;;;;4997691;28;20134;-83
2021/08/03 14:55:06;;;;;;;2.78;1.20;;;;;;;;;;4998573;28;20499;-83
2021/08/03 14:57:33;;;;;;;2.67;1.02;;;;;;;;;;5002312;28;20050;-83